Time;durP1;ratioP1;P1;durP2;ratioP2;P2;SDS_P1;SDS_P2;PMS_P1;PMS_P2;Temp;Humidity;BMP_temperature;BMP_pressure;BME280_temperature;BME280_humidity;BME280_pressure;Samples;Min_cycle;Max_cycle;Signal;HPM_P1;HPM_P2
2022/11/28 00:02:05;;;;;;;4.35;2.50;;;;;;;5.32;100.00;101175.50;6246326;28;20459;-71
2022/11/28 00:05:10;;;;;;;6.25;2.58;;;;;;;5.33;100.00;101163.31;6245345;28;20042;-71
2022/11/28 00:08:11;;;;;;;3.92;2.33;;;;;;;5.31;100.00;101158.16;6246310;28;20044;-71
2022/11/28 00:11:15;;;;;;;3.17;1.83;;;;;;;5.31;100.00;101150.34;6245755;28;20177;-71
2022/11/28 00:14:19;;;;;;;6.35;2.20;;;;;;;5.24;100.00;101143.56;6246516;28;20272;-71
2022/11/28 00:17:20;;;;;;;4.18;2.30;;;;;;;5.22;100.00;101134.94;6251370;28;20068;-71
2022/11/28 00:20:22;;;;;;;4.13;2.15;;;;;;;5.22;100.00;101136.66;6250976;28;20053;-71
2022/11/28 00:23:23;;;;;;;5.15;2.28;;;;;;;5.21;100.00;101138.41;6251147;28;20460;-71
2022/11/28 00:26:28;;;;;;;4.63;2.70;;;;;;;5.18;100.00;101129.81;6251158;28;20049;-71
2022/11/28 00:29:30;;;;;;;4.45;2.20;;;;;;;5.15;100.00;101106.47;6250854;28;20515;-71
2022/11/28 00:32:32;;;;;;;6.78;2.45;;;;;;;5.13;100.00;101096.06;6250568;28;20421;-71
2022/11/28 00:35:33;;;;;;;16.35;2.97;;;;;;;5.17;100.00;101092.47;6250677;28;20061;-71
2022/11/28 00:38:35;;;;;;;3.47;2.20;;;;;;;5.15;100.00;101083.88;6251141;28;20053;-71
2022/11/28 00:41:36;;;;;;;4.80;2.45;;;;;;;5.06;100.00;101074.53;6250490;28;20049;-71
2022/11/28 00:44:39;;;;;;;5.45;2.40;;;;;;;5.06;100.00;101068.47;6250219;28;20046;-71
2022/11/28 00:47:40;;;;;;;4.97;3.03;;;;;;;5.01;100.00;101079.00;6250746;28;20078;-71
2022/11/28 00:50:42;;;;;;;5.72;2.40;;;;;;;5.05;100.00;101106.69;6250182;28;20045;-71
2022/11/28 00:53:46;;;;;;;6.63;2.72;;;;;;;5.09;100.00;101097.06;6250474;28;20056;-71
2022/11/28 00:56:48;;;;;;;6.10;2.63;;;;;;;5.11;100.00;101089.19;6250866;28;20046;-71
2022/11/28 00:59:50;;;;;;;4.95;2.53;;;;;;;5.13;100.00;101063.94;6250316;28;20054;-71
2022/11/28 01:02:52;;;;;;;6.25;2.65;;;;;;;5.13;100.00;101062.19;6250438;28;20050;-71
2022/11/28 01:05:53;;;;;;;6.10;2.75;;;;;;;5.13;100.00;101061.34;6249878;28;20180;-71
2022/11/28 01:08:55;;;;;;;6.95;2.90;;;;;;;5.17;100.00;101053.41;6250097;28;20393;-71
2022/11/28 01:11:57;;;;;;;5.40;2.88;;;;;;;5.18;100.00;101051.66;6249903;28;20060;-71
2022/11/28 01:15:00;;;;;;;5.57;2.28;;;;;;;5.15;100.00;101036.97;6250011;28;20049;-71
2022/11/28 01:18:01;;;;;;;5.65;3.00;;;;;;;5.17;100.00;101023.91;6250161;28;20049;-71
2022/11/28 01:21:03;;;;;;;4.32;2.55;;;;;;;5.17;100.00;101013.47;6249654;28;20518;-71
2022/11/28 01:24:05;;;;;;;4.90;2.08;;;;;;;5.16;100.00;101009.16;6249426;28;20489;-71
2022/11/28 01:27:07;;;;;;;4.00;2.42;;;;;;;5.17;100.00;101029.97;6248892;28;20052;-71
2022/11/28 01:30:10;;;;;;;4.50;2.63;;;;;;;5.19;100.00;101028.19;6249345;28;20051;-71
2022/11/28 01:33:11;;;;;;;4.50;2.78;;;;;;;5.22;100.00;101027.22;6249724;28;20045;-71
2022/11/28 01:36:14;;;;;;;5.95;2.95;;;;;;;5.23;100.00;101016.78;6249307;28;20052;-71
2022/11/28 01:39:15;;;;;;;6.03;2.50;;;;;;;5.22;100.00;101002.06;6249417;28;20067;-72
2022/11/28 01:42:17;;;;;;;6.55;2.55;;;;;;;5.26;100.00;100995.00;6249211;28;20394;-71
2022/11/28 01:45:23;;;;;;;6.53;2.65;;;;;;;5.25;100.00;100990.69;6248973;28;20045;-71
2022/11/28 01:48:27;;;;;;;4.30;2.60;;;;;;;5.28;100.00;100974.97;6249545;28;20064;-71
2022/11/28 01:51:30;;;;;;;3.75;1.92;;;;;;;5.29;100.00;100974.91;6248890;28;20056;-71
2022/11/28 01:54:34;;;;;;;6.60;2.72;;;;;;;5.30;100.00;100968.81;6248916;28;20052;-71
2022/11/28 01:57:35;;;;;;;4.82;2.35;;;;;;;5.31;100.00;100952.28;6249270;28;20049;-71
2022/11/28 02:00:38;;;;;;;5.40;2.25;;;;;;;5.32;100.00;100940.13;6248858;28;20053;-71
2022/11/28 02:03:43;;;;;;;3.70;2.08;;;;;;;5.32;100.00;100933.16;6248828;28;20050;-71
2022/11/28 02:06:44;;;;;;;3.35;1.90;;;;;;;5.24;100.00;100924.69;6249260;28;20054;-71
2022/11/28 02:09:46;;;;;;;5.90;2.22;;;;;;;5.32;100.00;100940.13;6248678;28;20053;-71
2022/11/28 02:13:08;;;;;;;3.30;2.33;;;;;;;5.34;100.00;100946.97;6248739;28;20045;-71
2022/11/28 02:16:37;;;;;;;4.43;2.25;;;;;;;5.36;100.00;100959.97;6248119;28;20509;-71
2022/11/28 02:20:15;;;;;;;4.25;2.40;;;;;;;5.37;100.00;100969.50;6248587;28;20054;-71
2022/11/28 02:23:24;;;;;;;4.90;2.45;;;;;;;5.45;100.00;100970.16;6248410;28;20517;-71
2022/11/28 02:26:48;;;;;;;6.47;2.38;;;;;;;5.49;100.00;100963.06;6248030;28;20045;-71
2022/11/28 02:30:19;;;;;;;3.63;1.85;;;;;;;5.48;100.00;100959.59;6248063;28;20053;-71
2022/11/28 02:33:26;;;;;;;7.10;2.65;;;;;;;5.48;100.00;100964.81;6242802;28;20049;-71
2022/11/28 02:36:31;;;;;;;5.18;2.28;;;;;;;5.49;100.00;100952.63;6247714;28;20402;-71
2022/11/28 02:39:43;;;;;;;5.18;2.42;;;;;;;5.44;100.00;100952.78;6247664;28;20049;-71
2022/11/28 02:42:58;;;;;;;8.93;3.03;;;;;;;5.44;100.00;100955.38;6248346;28;20049;-71
2022/11/28 02:46:06;;;;;;;3.65;2.08;;;;;;;5.45;100.00;100954.50;6247542;28;20045;-71
2022/11/28 02:49:16;;;;;;;5.25;2.08;;;;;;;5.48;100.00;100957.00;6247608;28;20050;-71
2022/11/28 02:52:21;;;;;;;3.75;1.80;;;;;;;5.49;100.00;100955.25;6247518;28;20056;-71
2022/11/28 02:55:24;;;;;;;5.00;2.65;;;;;;;5.45;100.00;100949.28;6247409;28;20042;-71
2022/11/28 02:58:26;;;;;;;7.63;2.47;;;;;;;5.48;100.00;100943.13;6247622;28;20429;-71
2022/11/28 03:01:32;;;;;;;3.78;2.20;;;;;;;5.42;100.00;100922.47;6247337;28;20053;-71
2022/11/28 03:04:46;;;;;;;5.20;2.20;;;;;;;5.43;100.00;100938.03;6247129;28;20052;-71
2022/11/28 03:08:01;;;;;;;6.18;2.88;;;;;;;5.41;100.00;100942.47;6247793;28;20045;-71
2022/11/28 03:11:13;;;;;;;5.63;2.40;;;;;;;5.39;100.00;100935.56;6246942;28;20421;-71
2022/11/28 03:14:24;;;;;;;5.28;2.50;;;;;;;5.34;100.00;100933.09;6247218;28;20060;-71
2022/11/28 03:17:36;;;;;;;6.00;2.70;;;;;;;5.31;100.00;100926.25;6247465;28;20049;-71
2022/11/28 03:20:45;;;;;;;4.63;2.70;;;;;;;5.32;100.00;100937.50;6246932;28;20515;-71
2022/11/28 03:23:51;;;;;;;4.03;1.92;;;;;;;5.33;100.00;100924.44;6246985;28;20049;-71
2022/11/28 03:26:58;;;;;;;4.32;1.92;;;;;;;5.37;100.00;100934.78;6247228;28;20053;-71
2022/11/28 03:30:05;;;;;;;3.63;2.30;;;;;;;5.42;100.00;100932.88;6246512;28;20056;-71
2022/11/28 03:33:08;;;;;;;4.65;2.38;;;;;;;5.40;100.00;100925.09;6246961;28;20076;-71
2022/11/28 03:36:15;;;;;;;4.97;2.25;;;;;;;5.38;100.00;100934.72;6246490;28;20432;-71
2022/11/28 03:39:20;;;;;;;4.95;1.92;;;;;;;5.41;100.00;100931.19;6247014;28;20065;-71
2022/11/28 03:42:24;;;;;;;6.28;2.25;;;;;;;5.42;100.00;100930.28;6244035;28;20049;-71
2022/11/28 03:45:29;;;;;;;4.22;2.00;;;;;;;5.44;100.00;100931.94;6246348;28;20052;-71
2022/11/28 03:48:34;;;;;;;6.22;2.53;;;;;;;5.46;100.00;100935.34;6246500;28;20052;-71
2022/11/28 03:51:41;;;;;;;6.25;2.53;;;;;;;5.49;100.00;100930.03;6246382;28;20045;-71
2022/11/28 03:54:48;;;;;;;4.72;2.15;;;;;;;5.49;100.00;100924.81;6246301;28;20042;-71
2022/11/28 03:57:58;;;;;;;3.53;2.00;;;;;;;5.47;100.00;100921.41;6247042;28;20050;-71
2022/11/28 04:01:08;;;;;;;5.40;2.47;;;;;;;5.49;100.00;100917.00;6245999;28;20578;-70
2022/11/28 04:04:16;;;;;;;6.45;2.38;;;;;;;5.51;100.00;100928.25;6246393;28;20041;-71
2022/11/28 04:07:26;;;;;;;3.45;2.00;;;;;;;5.51;100.00;100923.03;6246373;28;20049;-71
2022/11/28 04:10:34;;;;;;;4.40;2.20;;;;;;;5.50;100.00;100925.72;6246071;28;20045;-71
2022/11/28 04:13:41;;;;;;;4.25;2.38;;;;;;;5.52;100.00;100926.50;6246410;28;20050;-71
2022/11/28 04:16:49;;;;;;;3.88;1.88;;;;;;;5.53;100.00;100926.44;6246565;28;20053;-71
2022/11/28 04:19:55;;;;;;;7.38;2.72;;;;;;;5.54;100.00;100928.16;6245953;28;20056;-71
2022/11/28 04:23:02;;;;;;;5.90;2.20;;;;;;;5.53;100.00;100923.84;6246490;28;20064;-71
2022/11/28 04:26:10;;;;;;;3.28;1.80;;;;;;;5.50;100.00;100923.09;6245712;28;20493;-71
2022/11/28 04:29:17;;;;;;;2.95;1.77;;;;;;;5.47;100.00;100923.19;6246315;28;20045;-71
2022/11/28 04:32:20;;;;;;;3.30;1.77;;;;;;;5.47;100.00;100926.63;6245820;28;20409;-71
2022/11/28 04:35:27;;;;;;;5.82;2.50;;;;;;;5.49;100.00;100919.59;6245966;28;20056;-71
2022/11/28 04:38:31;;;;;;;2.58;1.60;;;;;;;5.50;100.00;100923.94;6246212;28;20049;-71
2022/11/28 04:41:38;;;;;;;4.40;2.20;;;;;;;5.54;100.00;100915.13;6245947;28;20049;-71
2022/11/28 04:44:46;;;;;;;2.88;2.05;;;;;;;5.52;100.00;100914.31;6245774;28;20049;-71
2022/11/28 04:47:48;;;;;;;7.13;1.88;;;;;;;5.56;100.00;100915.94;6246253;28;20068;-71
2022/11/28 04:50:55;;;;;;;6.28;2.85;;;;;;;5.59;100.00;100917.59;6245830;28;20053;-71
2022/11/28 04:54:04;;;;;;;3.85;1.80;;;;;;;5.60;100.00;100908.88;6245894;28;20145;-70
2022/11/28 04:57:14;;;;;;;4.28;2.03;;;;;;;5.60;100.00;100908.88;6246143;28;20049;-70
2022/11/28 05:00:19;;;;;;;3.05;1.95;;;;;;;5.58;100.00;100905.44;6246262;28;20045;-71
2022/11/28 05:03:22;;;;;;;8.30;2.50;;;;;;;5.59;100.00;100899.38;6250517;28;20049;-71
2022/11/28 05:06:25;;;;;;;5.78;1.88;;;;;;;5.60;100.00;100898.47;6250199;28;20057;-71
2022/11/28 05:09:28;;;;;;;3.85;2.00;;;;;;;5.58;100.00;100902.84;6250364;28;20049;-71
2022/11/28 05:12:29;;;;;;;3.80;2.00;;;;;;;5.61;100.00;100894.94;6250310;28;20421;-71
2022/11/28 05:15:31;;;;;;;4.95;2.28;;;;;;;5.59;100.00;100904.56;6249736;28;20056;-71
2022/11/28 05:18:32;;;;;;;4.38;2.17;;;;;;;5.58;100.00;100897.63;6250339;28;20049;-71
2022/11/28 05:21:34;;;;;;;3.35;1.90;;;;;;;5.57;100.00;100896.78;6249790;28;20053;-71
2022/11/28 05:24:37;;;;;;;5.60;2.25;;;;;;;5.52;100.00;100903.03;6249849;28;20041;-71
2022/11/28 05:27:38;;;;;;;7.30;2.53;;;;;;;5.52;100.00;100901.28;6250365;28;20049;-71
2022/11/28 05:30:40;;;;;;;5.35;2.47;;;;;;;5.53;100.00;100905.59;6249505;28;20060;-71
2022/11/28 05:33:41;;;;;;;5.07;2.33;;;;;;;5.52;100.00;100908.25;6249641;28;20050;-71
2022/11/28 05:36:42;;;;;;;12.60;2.78;;;;;;;5.48;100.00;100911.84;6249951;28;20049;-71
2022/11/28 05:39:45;;;;;;;3.35;2.05;;;;;;;5.42;100.00;100902.47;6249586;28;20505;-71
2022/11/28 05:42:47;;;;;;;3.95;2.40;;;;;;;5.37;100.00;100906.13;6249185;28;20056;-71
2022/11/28 05:45:48;;;;;;;3.95;2.15;;;;;;;5.30;100.00;100911.47;6249092;28;20436;-71
2022/11/28 05:48:50;;;;;;;6.55;2.50;;;;;;;5.30;100.00;100905.41;6249435;28;20057;-71
2022/11/28 05:51:51;;;;;;;3.10;2.05;;;;;;;5.30;100.00;100905.41;6249025;28;20057;-71
2022/11/28 05:54:54;;;;;;;3.42;2.22;;;;;;;5.31;100.00;100901.91;6249005;28;20050;-71
2022/11/28 05:57:56;;;;;;;6.25;2.28;;;;;;;5.33;100.00;100911.41;6249526;28;20517;-71
2022/11/28 06:00:58;;;;;;;4.70;2.10;;;;;;;5.34;100.00;100899.22;6248788;28;20098;-71
2022/11/28 06:03:59;;;;;;;5.60;2.78;;;;;;;5.31;100.00;100907.13;6248658;28;20056;-71
2022/11/28 06:07:01;;;;;;;3.53;2.25;;;;;;;5.32;100.00;100906.25;6249153;28;20425;-71
2022/11/28 06:10:05;;;;;;;5.35;2.10;;;;;;;5.32;100.00;100906.25;6248846;28;20045;-70
2022/11/28 06:13:06;;;;;;;4.57;2.00;;;;;;;5.27;100.00;100906.38;6248205;28;20076;-71
2022/11/28 06:16:09;;;;;;;4.32;1.92;;;;;;;5.23;100.00;100893.47;6248530;28;20041;-71
2022/11/28 06:19:12;;;;;;;7.15;2.42;;;;;;;5.23;100.00;100891.72;6249090;28;20056;-71
2022/11/28 06:22:13;;;;;;;4.13;2.33;;;;;;;5.21;100.00;100893.50;6248534;28;20052;-71
2022/11/28 06:25:16;;;;;;;6.82;2.58;;;;;;;5.21;100.00;100895.25;6248417;28;20049;-71
2022/11/28 06:28:17;;;;;;;3.38;2.00;;;;;;;5.21;100.00;100890.91;6248296;28;20053;-71
2022/11/28 06:31:21;;;;;;;6.90;2.13;;;;;;;5.19;100.00;100884.03;6248464;28;20045;-71
2022/11/28 06:34:23;;;;;;;7.20;3.15;;;;;;;5.19;100.00;100886.66;6248097;28;20060;-71
2022/11/28 06:37:24;;;;;;;6.15;2.63;;;;;;;5.22;100.00;100886.53;6248401;28;20052;-71
2022/11/28 06:40:27;;;;;;;4.47;2.72;;;;;;;5.20;100.00;100888.34;6248108;28;20052;-71
2022/11/28 06:43:29;;;;;;;4.43;2.47;;;;;;;5.24;100.00;100892.56;6248169;28;20138;-71
2022/11/28 06:46:31;;;;;;;8.18;2.58;;;;;;;5.22;100.00;100896.97;6247762;28;20045;-71
2022/11/28 06:49:32;;;;;;;3.28;1.95;;;;;;;5.22;100.00;100894.34;6248434;28;20049;-71
2022/11/28 06:52:35;;;;;;;4.25;2.40;;;;;;;5.20;100.00;100901.38;6247892;28;20132;-71
2022/11/28 06:55:37;;;;;;;7.10;3.10;;;;;;;5.23;100.00;100901.31;6247469;28;20045;-71
2022/11/28 06:58:39;;;;;;;5.90;2.38;;;;;;;5.27;100.00;100902.91;6247593;28;20049;-71
2022/11/28 07:01:41;;;;;;;5.13;3.05;;;;;;;5.25;100.00;100900.34;6244786;28;20119;-71
2022/11/28 07:04:42;;;;;;;4.28;2.42;;;;;;;5.29;100.00;100914.13;6247350;28;20045;-71
2022/11/28 07:07:43;;;;;;;5.22;2.85;;;;;;;5.25;100.00;100920.34;6247683;28;20493;-71
2022/11/28 07:10:46;;;;;;;8.43;3.00;;;;;;;5.26;100.00;100920.28;6243170;28;20053;-71
2022/11/28 07:13:48;;;;;;;4.55;2.22;;;;;;;5.25;100.00;100926.41;6246774;28;20052;-71
2022/11/28 07:16:50;;;;;;;5.40;2.83;;;;;;;5.29;100.00;100928.03;6243520;28;20045;-70
2022/11/28 07:19:51;;;;;;;4.82;1.83;;;;;;;5.27;100.00;100924.63;6246825;28;20049;-70
2022/11/28 07:22:52;;;;;;;5.13;2.38;;;;;;;5.26;100.00;100928.09;6247081;28;20382;-71
2022/11/28 07:25:59;;;;;;;5.63;2.67;;;;;;;5.27;100.00;100929.81;6246022;28;20056;-71
2022/11/28 07:29:01;;;;;;;4.50;2.70;;;;;;;5.30;100.00;100934.94;6246955;28;20501;-71
2022/11/28 07:32:03;;;;;;;4.35;2.80;;;;;;;5.34;100.00;100936.56;6243085;28;20046;-71
2022/11/28 07:35:07;;;;;;;8.75;2.90;;;;;;;5.38;100.00;100939.94;6242921;28;20042;-71
2022/11/28 07:38:08;;;;;;;5.85;3.20;;;;;;;5.35;100.00;100940.00;6246814;28;20504;-71
2022/11/28 07:41:12;;;;;;;5.05;2.47;;;;;;;5.39;100.00;100949.44;6245788;28;20049;-71
2022/11/28 07:44:16;;;;;;;9.77;2.58;;;;;;;5.37;100.00;100946.03;6246644;28;20050;-71
2022/11/28 07:47:18;;;;;;;5.28;2.50;;;;;;;5.37;100.00;100956.47;6247127;28;20041;-71
2022/11/28 07:50:19;;;;;;;4.95;2.42;;;;;;;5.34;100.00;100954.78;6246236;28;20050;-71
2022/11/28 07:53:21;;;;;;;7.68;2.38;;;;;;;5.35;100.00;100950.44;6246658;28;20072;-71
2022/11/28 07:56:25;;;;;;;4.38;2.08;;;;;;;5.34;100.00;100953.94;6245694;28;20042;-71
2022/11/28 07:59:27;;;;;;;5.68;2.50;;;;;;;5.29;100.00;100956.69;6246102;28;20045;-71
2022/11/28 08:02:31;;;;;;;5.00;2.17;;;;;;;5.29;100.00;100966.25;6246249;28;20413;-71
2022/11/28 08:05:32;;;;;;;5.00;2.47;;;;;;;5.29;100.00;100971.47;6246502;28;20041;-71
2022/11/28 08:08:34;;;;;;;4.78;2.45;;;;;;;5.28;100.00;100967.16;6246650;28;20060;-71
2022/11/28 08:11:37;;;;;;;4.15;2.28;;;;;;;5.28;100.00;100967.16;6246384;28;20054;-71
2022/11/28 08:14:38;;;;;;;6.78;2.97;;;;;;;5.29;100.00;100966.25;6246170;28;20056;-71
2022/11/28 08:17:40;;;;;;;7.65;2.97;;;;;;;5.30;100.00;100962.75;6246493;28;20509;-71
2022/11/28 08:20:41;;;;;;;4.72;2.38;;;;;;;5.31;100.00;100967.03;6246207;28;20053;-71
2022/11/28 08:23:44;;;;;;;7.60;2.50;;;;;;;5.31;100.00;100967.03;6246143;28;20421;-71
2022/11/28 08:26:46;;;;;;;9.30;3.03;;;;;;;5.31;100.00;100957.50;6246338;28;20045;-71
2022/11/28 08:29:48;;;;;;;4.43;2.45;;;;;;;5.27;100.00;100960.25;6245927;28;20520;-71
2022/11/28 08:32:49;;;;;;;2.75;2.22;;;;;;;5.30;100.00;100963.59;6246589;28;20061;-71
2022/11/28 08:35:51;;;;;;;7.93;3.28;;;;;;;5.30;100.00;100960.97;6247072;28;20417;-71
2022/11/28 08:38:53;;;;;;;3.97;2.30;;;;;;;5.33;100.00;100954.84;6250980;28;20057;-71
2022/11/28 08:41:57;;;;;;;9.55;2.58;;;;;;;5.35;100.00;100950.44;6250502;28;20179;-71
2022/11/28 08:44:59;;;;;;;4.82;2.35;;;;;;;5.34;100.00;100957.41;6250583;28;20053;-71
2022/11/28 08:48:00;;;;;;;4.80;2.88;;;;;;;5.33;100.00;100954.84;6251629;28;20056;-71
2022/11/28 08:51:02;;;;;;;6.55;3.20;;;;;;;5.29;100.00;100959.28;6247957;28;20041;-71
2022/11/28 08:54:03;;;;;;;4.50;2.38;;;;;;;5.24;100.00;100958.56;6250242;28;20053;-71
2022/11/28 08:57:06;;;;;;;7.70;3.28;;;;;;;5.25;100.00;100955.06;6250433;28;20429;-70
2022/11/28 09:00:09;;;;;;;6.55;2.85;;;;;;;5.23;100.00;100961.22;6250046;28;20049;-70
2022/11/28 09:03:14;;;;;;;4.53;2.92;;;;;;;5.21;100.00;100961.25;6250213;28;20054;-70
2022/11/28 09:06:17;;;;;;;5.10;2.67;;;;;;;5.24;100.00;100968.97;6250013;28;20130;-71
2022/11/28 09:09:19;;;;;;;4.55;2.20;;;;;;;5.25;100.00;100965.47;6250151;28;20045;-70
2022/11/28 09:12:21;;;;;;;6.97;3.70;;;;;;;5.24;100.00;100968.13;6250097;28;20046;-71
2022/11/28 09:15:23;;;;;;;7.18;3.33;;;;;;;5.20;100.00;100972.56;6249877;28;20045;-71
2022/11/28 09:18:25;;;;;;;6.80;2.80;;;;;;;5.14;100.00;100967.53;6250239;28;20065;-70
2022/11/28 09:21:27;;;;;;;5.63;3.33;;;;;;;5.10;100.00;100965.91;6249594;28;20382;-71
2022/11/28 09:24:28;;;;;;;8.20;3.05;;;;;;;5.16;100.00;100962.28;6249629;28;20524;-70
2022/11/28 09:27:31;;;;;;;7.60;4.20;;;;;;;5.14;100.00;100967.53;6250007;28;20493;-71
2022/11/28 09:30:33;;;;;;;8.90;4.15;;;;;;;5.12;100.00;100971.06;6249258;28;20520;-71
2022/11/28 09:33:35;;;;;;;7.80;3.20;;;;;;;5.08;100.00;100973.75;6249823;28;20042;-71
2022/11/28 09:36:37;;;;;;;8.00;3.80;;;;;;;5.14;100.00;100970.16;6249610;28;20050;-72
2022/11/28 09:39:39;;;;;;;9.60;3.38;;;;;;;5.17;100.00;100969.19;6257638;28;20049;-71
2022/11/28 09:42:43;;;;;;;9.50;3.40;;;;;;;5.20;100.00;100969.13;6274005;28;20045;-71
2022/11/28 09:45:50;;;;;;;7.72;4.22;;;;;;;5.19;100.00;100972.63;6261974;28;20052;-71
2022/11/28 09:48:55;;;;;;;10.85;3.90;;;;;;;5.17;100.00;100971.78;6248129;28;20501;-72
2022/11/28 09:52:01;;;;;;;10.05;3.70;;;;;;;5.14;100.00;100964.94;6249301;28;20053;-72
2022/11/28 09:55:17;;;;;;;7.75;3.42;;;;;;;5.19;100.00;100967.41;6248892;28;20060;-72
2022/11/28 09:58:27;;;;;;;7.18;3.40;;;;;;;5.15;100.00;100965.78;6249433;28;20053;-71
2022/11/28 10:01:35;;;;;;;7.38;4.00;;;;;;;5.17;100.00;100969.19;6248642;28;20053;-71
2022/11/28 10:04:42;;;;;;;7.00;3.72;;;;;;;5.25;100.00;100959.41;6248859;28;20068;-71
2022/11/28 10:07:59;;;;;;;8.82;4.18;;;;;;;5.22;100.00;100959.50;6248777;28;20497;-72
2022/11/28 10:11:04;;;;;;;8.07;3.95;;;;;;;5.26;100.00;100954.16;6248687;28;20059;-71
2022/11/28 10:14:33;;;;;;;6.20;3.63;;;;;;;5.21;100.00;100958.63;6248919;28;20068;-71
2022/11/28 10:17:45;;;;;;;8.30;3.85;;;;;;;5.30;100.00;100950.56;6248863;28;20045;-71
2022/11/28 10:20:51;;;;;;;6.05;3.33;;;;;;;5.24;100.00;100952.50;6248354;28;20057;-71
2022/11/28 10:23:56;;;;;;;6.82;3.58;;;;;;;5.26;100.00;100950.69;6248190;28;20520;-71
2022/11/28 10:27:02;;;;;;;8.85;3.85;;;;;;;5.25;100.00;100951.59;6248543;28;20057;-71
2022/11/28 10:30:11;;;;;;;8.25;3.58;;;;;;;5.28;100.00;100948.91;6247879;28;20492;-71
2022/11/28 10:33:20;;;;;;;5.87;3.27;;;;;;;5.29;100.00;100948.00;6248764;28;20053;-72
2022/11/28 10:36:26;;;;;;;8.75;4.13;;;;;;;5.26;100.00;100937.66;6247870;28;20291;-71
2022/11/28 10:39:28;;;;;;;7.63;3.58;;;;;;;5.31;100.00;100944.47;6255006;28;20053;-72
2022/11/28 10:42:39;;;;;;;7.80;3.90;;;;;;;5.30;100.00;100950.56;6272237;28;20052;-71
2022/11/28 10:45:49;;;;;;;6.72;3.70;;;;;;;5.29;100.00;100948.88;6272846;28;20052;-72
2022/11/28 10:48:59;;;;;;;9.23;3.80;;;;;;;5.34;100.00;100948.72;6272820;28;20052;-72
2022/11/28 10:52:11;;;;;;;7.78;3.58;;;;;;;5.33;100.00;100945.28;6272619;28;20056;-72
2022/11/28 10:55:23;;;;;;;6.93;3.40;;;;;;;5.33;100.00;100939.22;6250799;28;20049;-72
2022/11/28 10:58:32;;;;;;;6.43;3.53;;;;;;;5.38;100.00;100934.72;6247953;28;20060;-72
2022/11/28 11:01:39;;;;;;;6.90;4.38;;;;;;;5.42;100.00;100931.13;6247304;28;20049;-71
2022/11/28 11:04:41;;;;;;;8.05;3.97;;;;;;;5.44;100.00;100933.69;6247681;28;20045;-72
2022/11/28 11:07:48;;;;;;;6.78;3.55;;;;;;;5.45;100.00;100945.81;6247397;28;20052;-71
2022/11/28 11:10:51;;;;;;;6.28;3.10;;;;;;;5.43;100.00;100945.88;6247495;28;20056;-71
2022/11/28 11:13:59;;;;;;;6.63;3.45;;;;;;;5.44;100.00;100938.88;6246845;28;20068;-72
2022/11/28 11:17:02;;;;;;;6.38;3.30;;;;;;;5.44;100.00;100934.53;6247591;28;20647;-71
2022/11/28 11:20:26;;;;;;;6.97;3.88;;;;;;;5.47;100.00;100937.06;6246710;28;20405;-72
2022/11/28 11:23:28;;;;;;;12.20;4.90;;;;;;;5.45;100.00;100935.38;6247164;28;20049;-71
2022/11/28 11:26:37;;;;;;;9.63;3.83;;;;;;;5.40;100.00;100938.13;6246603;28;20053;-70
2022/11/28 11:29:39;;;;;;;;;;;;;;;5.40;100.00;100930.31;6247284;28;20045;-71
2022/11/28 11:32:47;;;;;;;8.85;3.85;;;;;;;5.41;100.00;100924.22;6246774;28;20319;-71
2022/11/28 11:35:49;;;;;;;8.52;3.85;;;;;;;5.39;100.00;100919.94;6246628;28;20547;-71
2022/11/28 11:38:50;;;;;;;7.90;3.95;;;;;;;5.46;100.00;100921.47;6245091;28;20042;-71
2022/11/28 11:42:10;;;;;;;7.80;3.80;;;;;;;5.43;100.00;100929.38;6222194;28;20054;-72
2022/11/28 11:45:28;;;;;;;6.97;3.65;;;;;;;5.45;100.00;100938.00;6221913;28;20103;-71
2022/11/28 11:48:37;;;;;;;9.13;4.05;;;;;;;5.47;100.00;100937.06;6222295;28;20061;-71
2022/11/28 11:51:38;;;;;;;8.18;3.88;;;;;;;5.53;100.00;100933.41;6221760;28;20517;-71
2022/11/28 11:54:52;;;;;;;8.93;4.45;;;;;;;5.50;100.00;100923.94;6238379;28;20056;-71
2022/11/28 11:57:55;;;;;;;9.27;3.70;;;;;;;5.56;100.00;100928.13;6246382;28;20505;-70
2022/11/28 12:00:59;;;;;;;9.82;4.40;;;;;;;5.48;100.00;100912.69;6246337;28;20173;-71
2022/11/28 12:04:06;;;;;;;10.90;4.65;;;;;;;5.56;100.00;100913.31;6246024;28;20726;-71
2022/11/28 12:07:26;;;;;;;10.10;4.40;;;;;;;5.57;100.00;100912.41;6246691;28;20045;-70
2022/11/28 12:10:30;;;;;;;9.45;4.07;;;;;;;5.57;100.00;100911.56;6248697;28;20072;-71
2022/11/28 12:13:33;;;;;;;9.30;5.10;;;;;;;5.52;100.00;100916.06;6254886;28;20052;-71
2022/11/28 12:16:48;;;;;;;9.50;3.80;;;;;;;5.49;100.00;100914.41;6254065;28;20424;-70
2022/11/28 12:20:03;;;;;;;7.90;3.88;;;;;;;5.54;100.00;100907.31;6254220;28;20427;-71
2022/11/28 12:23:16;;;;;;;8.20;3.97;;;;;;;5.49;100.00;100927.44;6254525;28;20075;-70
2022/11/28 12:26:23;;;;;;;11.10;4.45;;;;;;;5.46;100.00;100924.09;6254312;28;20053;-70
2022/11/28 12:29:47;;;;;;;8.25;4.05;;;;;;;5.51;100.00;100915.22;6254144;28;20057;-70
2022/11/28 12:32:57;;;;;;;11.40;4.78;;;;;;;5.55;100.00;100922.06;6254647;28;20108;-70
2022/11/28 12:36:10;;;;;;;11.02;3.97;;;;;;;5.57;100.00;100916.78;6253969;28;20406;-70
2022/11/28 12:39:23;;;;;;;12.38;4.65;;;;;;;5.54;100.00;100928.16;6254197;28;20539;-70
2022/11/28 12:42:36;;;;;;;12.02;4.47;;;;;;;5.63;100.00;100926.16;6254470;28;20069;-70
2022/11/28 12:45:48;;;;;;;8.23;3.80;;;;;;;5.58;100.00;100928.91;6253772;28;20532;-71
2022/11/28 12:49:06;;;;;;;8.57;4.20;;;;;;;5.62;100.00;100921.84;6254481;28;20049;-70
2022/11/28 12:52:21;;;;;;;9.73;4.72;;;;;;;5.61;100.00;100918.41;6253760;28;20049;-70
2022/11/28 12:55:32;;;;;;;11.23;4.55;;;;;;;5.64;100.00;100913.09;6254014;28;20049;-70
2022/11/28 12:58:40;;;;;;;10.73;4.38;;;;;;;5.66;100.00;100916.50;6253912;28;20132;-70
2022/11/28 13:01:55;;;;;;;9.65;4.45;;;;;;;5.59;100.00;100913.25;6254063;28;20053;-71
2022/11/28 13:05:14;;;;;;;10.82;4.93;;;;;;;5.62;100.00;100925.31;6253540;28;20413;-71
2022/11/28 13:08:41;;;;;;;11.23;3.65;;;;;;;5.60;100.00;100916.69;6253874;28;20049;-70
2022/11/28 13:11:54;;;;;;;10.07;3.63;;;;;;;5.64;100.00;100917.47;6253698;28;20061;-70
2022/11/28 13:14:59;;;;;;;8.27;4.60;;;;;;;5.70;100.00;100917.28;6253561;28;20045;-71
2022/11/28 13:18:05;;;;;;;9.02;4.68;;;;;;;5.71;100.00;100925.03;6253859;28;20057;-70
2022/11/28 13:21:19;;;;;;;9.95;4.05;;;;;;;5.72;100.00;100921.56;6253012;28;20057;-70
2022/11/28 13:24:29;;;;;;;10.15;4.03;;;;;;;5.71;100.00;100918.97;6249689;28;20047;-71
2022/11/28 13:27:37;;;;;;;10.32;3.90;;;;;;;5.76;100.00;100930.97;6249730;28;20045;-70
2022/11/28 13:30:45;;;;;;;9.07;4.03;;;;;;;5.77;100.00;100929.25;6249552;28;20064;-71
2022/11/28 13:33:50;;;;;;;6.10;3.72;;;;;;;5.78;100.00;100930.94;6249213;28;20056;-70
2022/11/28 13:36:58;;;;;;;7.95;3.80;;;;;;;5.76;100.00;100930.13;6249852;28;20046;-70
2022/11/28 13:40:13;;;;;;;11.13;4.25;;;;;;;5.76;100.00;100932.72;6248883;28;20429;-71
2022/11/28 13:43:22;;;;;;;8.35;4.40;;;;;;;5.76;100.00;100930.13;6249782;28;20060;-70
2022/11/28 13:46:23;;;;;;;10.68;4.63;;;;;;;5.79;100.00;100933.47;6248943;28;20048;-71
2022/11/28 13:49:28;;;;;;;9.18;4.10;;;;;;;5.79;100.00;100927.41;6249285;28;20049;-71
2022/11/28 13:52:41;;;;;;;9.15;4.13;;;;;;;5.84;100.00;100930.75;6249150;28;20187;-70
2022/11/28 13:55:45;;;;;;;7.63;4.10;;;;;;;5.85;100.00;100932.44;6224532;28;20056;-71
2022/11/28 13:58:52;;;;;;;9.30;3.92;;;;;;;5.83;100.00;100929.03;6224593;28;20049;-71
2022/11/28 14:01:57;;;;;;;11.52;4.38;;;;;;;5.81;100.00;100925.59;6224188;28;20425;-71
2022/11/28 14:04:59;;;;;;;12.57;4.07;;;;;;;5.82;100.00;100938.63;6224154;28;20075;-71
2022/11/28 14:08:01;;;;;;;12.07;4.30;;;;;;;5.79;100.00;100941.31;6224454;28;20057;-71
2022/11/28 14:11:24;;;;;;;9.02;3.67;;;;;;;5.80;100.00;100929.97;6223914;28;20061;-70
2022/11/28 14:14:55;;;;;;;10.02;4.45;;;;;;;5.78;100.00;100943.97;6224119;28;20528;-70
2022/11/28 14:18:12;;;;;;;9.82;4.20;;;;;;;5.77;100.00;100939.66;6243729;28;20053;-70
2022/11/28 14:21:25;;;;;;;19.85;7.13;;;;;;;5.70;100.00;100933.78;6248449;28;20050;-70
2022/11/28 14:24:51;;;;;;;13.85;4.63;;;;;;;5.71;100.00;100939.84;6248244;28;20096;-70